Time;durP1;ratioP1;P1;durP2;ratioP2;P2;SDS_P1;SDS_P2;PMS_P1;PMS_P2;Temp;Humidity;BMP_temperature;BMP_pressure;BME280_temperature;BME280_humidity;BME280_pressure;Samples;Min_cycle;Max_cycle;Signal;HPM_P1;HPM_P2
2021/01/07 00:09:24;;;;;;;25.90;10.88;;;1.90;99.90;;;;;;6740436;88;20913;-77
2021/01/07 00:19:24;;;;;;;22.15;10.27;;;1.90;99.90;;;;;;6741131;88;20335;-78
2021/01/07 00:29:25;;;;;;;20.98;10.02;;;1.90;99.90;;;;;;6740860;88;20186;-77
2021/01/07 00:39:25;;;;;;;23.40;9.65;;;2.00;99.90;;;;;;6748098;88;20218;-79
2021/01/07 00:49:26;;;;;;;25.33;10.85;;;1.90;99.90;;;;;;6744983;88;20185;-78
2021/01/07 00:59:26;;;;;;;25.62;10.98;;;2.00;99.90;;;;;;6744508;88;20595;-77
2021/01/07 01:09:27;;;;;;;21.52;10.13;;;1.90;99.90;;;;;;6754310;88;20948;-77
2021/01/07 01:19:27;;;;;;;23.70;9.55;;;2.00;99.90;;;;;;6754102;88;20233;-77
2021/01/07 01:29:28;;;;;;;24.12;10.32;;;1.90;99.90;;;;;;6759652;88;20198;-77
2021/01/07 01:39:28;;;;;;;23.75;9.88;;;1.90;99.90;;;;;;6758839;88;20176;-78
2021/01/07 01:49:29;;;;;;;23.00;10.05;;;1.90;99.90;;;;;;6759254;88;20225;-77
2021/01/07 01:59:30;;;;;;;27.17;11.12;;;1.90;99.90;;;;;;6759982;88;20209;-77
2021/01/07 02:09:31;;;;;;;24.33;10.50;;;1.90;99.90;;;;;;6758037;88;20281;-77
2021/01/07 02:19:32;;;;;;;26.75;11.25;;;2.00;99.90;;;;;;6756808;88;20692;-78
2021/01/07 02:29:36;;;;;;;22.83;9.65;;;1.90;99.90;;;;;;6758033;88;20188;-77
2021/01/07 02:39:37;;;;;;;24.90;9.50;;;2.00;99.90;;;;;;6759570;88;20188;-78
2021/01/07 02:49:37;;;;;;;21.60;8.90;;;1.90;99.90;;;;;;6759996;88;20668;-77
2021/01/07 02:59:38;;;;;;;20.70;8.70;;;1.90;99.90;;;;;;6759268;88;20213;-77
2021/01/07 03:09:39;;;;;;;18.65;8.15;;;1.90;99.90;;;;;;6759005;88;20204;-77
2021/01/07 03:19:39;;;;;;;19.98;8.40;;;1.80;99.90;;;;;;6753670;88;20184;-77
2021/01/07 03:29:40;;;;;;;17.65;7.72;;;1.90;99.90;;;;;;6741491;88;20215;-77
2021/01/07 03:39:40;;;;;;;17.23;7.40;;;1.90;99.90;;;;;;6760669;88;20277;-77
2021/01/07 03:49:41;;;;;;;20.33;7.43;;;1.90;99.90;;;;;;6759537;88;20694;-79
2021/01/07 03:59:42;;;;;;;17.23;7.15;;;1.90;99.90;;;;;;6758722;88;20700;-77
2021/01/07 04:10:23;;;;;;;17.67;6.90;;;1.90;99.90;;;;;;6754298;77;20245;-74
2021/01/07 04:20:24;;;;;;;18.00;7.03;;;1.70;99.90;;;;;;6765784;88;20521;-75
2021/01/07 04:30:24;;;;;;;18.10;6.95;;;1.80;99.90;;;;;;6760787;88;20192;-74
2021/01/07 04:40:25;;;;;;;17.42;6.65;;;1.90;99.90;;;;;;6759715;88;20505;-74
2021/01/07 04:50:25;;;;;;;18.00;7.12;;;1.80;99.90;;;;;;6759962;88;20294;-75
2021/01/07 05:00:28;;;;;;;17.92;6.60;;;1.80;99.90;;;;;;6758395;88;20240;-75
2021/01/07 05:10:29;;;;;;;18.37;6.80;;;1.90;99.90;;;;;;6760949;88;20628;-74
2021/01/07 05:20:30;;;;;;;16.95;7.30;;;1.80;99.90;;;;;;6758795;88;20681;-75
2021/01/07 05:30:32;;;;;;;16.12;7.32;;;1.60;99.90;;;;;;6758680;88;20209;-75
2021/01/07 05:40:35;;;;;;;19.75;7.45;;;1.80;99.90;;;;;;6761954;88;20220;-74
2021/01/07 05:50:38;;;;;;;19.77;7.85;;;1.80;99.90;;;;;;6760824;87;20694;-75
2021/01/07 06:00:40;;;;;;;19.70;8.02;;;1.90;99.90;;;;;;6755408;88;20180;-74
2021/01/07 06:10:40;;;;;;;19.20;7.65;;;2.00;99.90;;;;;;6758699;87;20208;-75
2021/01/07 06:20:41;;;;;;;23.10;9.00;;;2.00;99.90;;;;;;6756064;88;20210;-74
2021/01/07 06:30:43;;;;;;;22.17;8.38;;;2.00;99.90;;;;;;6754641;87;20206;-76
2021/01/07 06:40:44;;;;;;;21.30;9.05;;;1.90;99.90;;;;;;6756880;88;20184;-74
2021/01/07 06:50:45;;;;;;;19.60;8.90;;;1.90;99.90;;;;;;6754625;88;20357;-74
2021/01/07 07:00:47;;;;;;;20.77;8.73;;;2.00;99.90;;;;;;6755745;88;20789;-74
2021/01/07 07:10:54;;;;;;;23.52;8.68;;;2.00;99.90;;;;;;6762988;87;20697;-75
2021/01/07 07:20:55;;;;;;;19.10;7.75;;;2.00;99.90;;;;;;6764725;87;20328;-76
2021/01/07 07:30:55;;;;;;;22.62;9.13;;;2.10;99.90;;;;;;6762367;88;20184;-77
2021/01/07 07:41:01;;;;;;;20.23;9.25;;;2.00;99.90;;;;;;6750534;87;20261;-76
2021/01/07 07:51:05;;;;;;;21.48;8.73;;;2.00;99.90;;;;;;6755839;88;20180;-77
2021/01/07 08:01:06;;;;;;;20.30;8.48;;;2.30;99.90;;;;;;6758231;88;20353;-76
2021/01/07 08:11:08;;;;;;;22.95;9.20;;;2.30;99.90;;;;;;6765418;87;20189;-76
2021/01/07 08:21:09;;;;;;;25.80;9.23;;;2.30;99.90;;;;;;6763337;88;20706;-75
2021/01/07 08:31:23;;;;;;;21.50;9.23;;;2.30;99.90;;;;;;6758458;88;20210;-76
2021/01/07 08:41:31;;;;;;;26.48;9.85;;;2.20;99.90;;;;;;6761713;88;20193;-75
2021/01/07 08:51:48;;;;;;;23.25;9.93;;;2.30;99.90;;;;;;6762218;88;20285;-76
2021/01/07 09:01:50;;;;;;;26.83;10.87;;;2.40;99.90;;;;;;6761188;88;20188;-76
2021/01/07 09:12:21;;;;;;;28.45;10.25;;;2.30;99.90;;;;;;6757436;88;20209;-76
2021/01/07 09:22:24;;;;;;;25.02;10.13;;;2.40;99.90;;;;;;6759573;88;20682;-76
2021/01/07 09:32:25;;;;;;;26.58;10.02;;;2.50;99.90;;;;;;6757721;88;20176;-76
2021/01/07 09:42:29;;;;;;;23.17;9.57;;;2.50;99.90;;;;;;6764040;88;20212;-76
2021/01/07 09:52:31;;;;;;;22.92;9.60;;;2.40;99.90;;;;;;6763007;88;20687;-75
2021/01/07 10:02:32;;;;;;;24.05;9.15;;;2.40;99.90;;;;;;6769606;87;20260;-76
2021/01/07 10:13:14;;;;;;;23.98;9.20;;;2.40;99.90;;;;;;6763607;77;20197;-77
2021/01/07 10:23:17;;;;;;;25.37;9.80;;;2.50;99.90;;;;;;6734882;88;20192;-76
2021/01/07 10:33:18;;;;;;;24.15;9.63;;;2.40;99.90;;;;;;6741765;88;20707;-78
2021/01/07 10:53:46;;;;;;;22.23;7.68;;;2.60;99.90;;;;;;6749583;88;20217;-78
2021/01/07 11:04:02;;;;;;;22.33;8.68;;;2.70;99.90;;;;;;6729244;88;20231;-76
2021/01/07 11:14:07;;;;;;;24.17;8.48;;;2.90;99.90;;;;;;6730133;88;21092;-77
2021/01/07 11:24:08;;;;;;;19.48;7.47;;;2.80;99.90;;;;;;6721011;88;20325;-77
2021/01/07 11:34:11;;;;;;;20.35;7.70;;;2.80;99.90;;;;;;6728822;88;20686;-77
2021/01/07 11:44:59;;;;;;;20.12;7.05;;;3.00;99.90;;;;;;6734647;88;20238;-78
2021/01/07 11:55:01;;;;;;;19.02;7.45;;;3.10;99.90;;;;;;6740991;88;20628;-78
2021/01/07 12:05:04;;;;;;;19.58;7.53;;;3.30;99.90;;;;;;6736813;88;20694;-74
2021/01/07 12:15:05;;;;;;;17.25;8.00;;;3.10;99.90;;;;;;6733331;88;20674;-79
2021/01/07 12:25:06;;;;;;;18.20;7.85;;;3.10;99.90;;;;;;6736328;88;20211;-79
2021/01/07 12:35:23;;;;;;;16.30;6.57;;;3.00;99.90;;;;;;6732635;88;20342;-79
2021/01/07 12:45:24;;;;;;;12.33;6.10;;;3.00;99.90;;;;;;6733188;88;20219;-78
2021/01/07 12:55:24;;;;;;;15.18;6.72;;;2.80;99.90;;;;;;6728317;88;20201;-77
2021/01/07 13:05:29;;;;;;;17.02;6.90;;;2.80;99.90;;;;;;6726715;88;20280;-77
2021/01/07 13:15:30;;;;;;;13.65;6.10;;;2.60;99.90;;;;;;6731005;88;20304;-77
2021/01/07 13:25:33;;;;;;;16.98;5.93;;;2.60;99.90;;;;;;6726145;88;20316;-77
2021/01/07 13:35:37;;;;;;;16.92;6.87;;;2.70;99.90;;;;;;6730911;88;20613;-77
2021/01/07 13:45:41;;;;;;;11.90;5.22;;;2.70;99.90;;;;;;6729829;88;20196;-76
2021/01/07 13:55:42;;;;;;;13.95;5.47;;;2.70;99.90;;;;;;6745238;88;20225;-77
2021/01/07 14:05:43;;;;;;;11.02;4.62;;;2.70;99.90;;;;;;6734438;88;20223;-77
2021/01/07 14:15:44;;;;;;;11.63;5.07;;;2.70;99.90;;;;;;6730896;88;20185;-76
2021/01/07 14:25:46;;;;;;;11.63;5.30;;;2.70;99.90;;;;;;6729217;88;20196;-76
2021/01/07 14:35:47;;;;;;;8.52;4.53;;;2.60;99.90;;;;;;6725399;88;20246;-75
2021/01/07 14:45:48;;;;;;;7.62;4.03;;;2.70;99.90;;;;;;6720968;88;20189;-75
2021/01/07 14:55:50;;;;;;;7.28;4.05;;;2.60;99.90;;;;;;6731959;88;20217;-79
2021/01/07 15:06:06;;;;;;;6.70;3.70;;;2.60;99.90;;;;;;6748597;88;20206;-80
2021/01/07 15:16:28;;;;;;;7.28;3.87;;;2.50;99.90;;;;;;6745993;88;20188;-76
2021/01/07 15:26:53;;;;;;;7.15;4.28;;;2.50;99.90;;;;;;6738775;88;20178;-77
2021/01/07 15:37:02;;;;;;;7.03;4.07;;;2.50;99.90;;;;;;6733896;88;20197;-78
2021/01/07 15:47:15;;;;;;;8.02;4.30;;;2.40;99.90;;;;;;6724371;88;20321;-76
2021/01/07 15:57:28;;;;;;;7.50;4.03;;;2.40;99.90;;;;;;6736185;88;20189;-77
2021/01/07 16:07:38;;;;;;;8.63;5.10;;;2.40;99.90;;;;;;6727187;88;20186;-75
2021/01/07 16:17:39;;;;;;;11.25;6.28;;;2.20;99.90;;;;;;6734510;88;20767;-76
2021/01/07 16:27:49;;;;;;;11.23;5.87;;;2.20;99.90;;;;;;6733508;88;20197;-76
2021/01/07 16:37:50;;;;;;;13.77;7.25;;;2.20;99.90;;;;;;6728846;88;20749;-76
2021/01/07 16:47:50;;;;;;;16.33;8.02;;;2.20;99.90;;;;;;6734608;88;20199;-76
2021/01/07 16:57:51;;;;;;;15.60;8.13;;;2.30;99.90;;;;;;6733451;88;20694;-77
2021/01/07 17:07:52;;;;;;;16.27;9.02;;;2.30;99.90;;;;;;6733424;88;20730;-77
2021/01/07 17:17:52;;;;;;;15.23;8.55;;;2.40;99.90;;;;;;6739674;88;20220;-77
2021/01/07 17:27:53;;;;;;;16.83;9.18;;;2.40;99.90;;;;;;6739390;88;20742;-78
2021/01/07 17:37:54;;;;;;;13.77;7.55;;;2.40;99.90;;;;;;6733785;88;20237;-75
2021/01/07 17:47:54;;;;;;;11.50;6.40;;;2.40;99.90;;;;;;6739408;88;20524;-79
2021/01/07 17:57:55;;;;;;;11.52;6.53;;;2.40;99.90;;;;;;6737643;88;20296;-79
2021/01/07 18:07:55;;;;;;;10.57;5.50;;;2.40;99.90;;;;;;6732786;88;20181;-78
2021/01/07 18:17:56;;;;;;;6.90;4.07;;;2.30;99.90;;;;;;6726145;88;20710;-78
2021/01/07 18:27:56;;;;;;;7.93;3.80;;;2.30;99.90;;;;;;6731587;88;20598;-78
2021/01/07 18:37:57;;;;;;;7.82;3.05;;;2.20;99.90;;;;;;6730980;88;20209;-76
2021/01/07 18:47:58;;;;;;;7.97;2.78;;;2.20;99.90;;;;;;6734383;88;20222;-78
2021/01/07 18:57:58;;;;;;;5.62;2.85;;;2.20;99.90;;;;;;6735400;88;20530;-77
2021/01/07 19:07:59;;;;;;;9.45;3.75;;;2.20;99.90;;;;;;6740168;88;20680;-78
2021/01/07 19:18:00;;;;;;;8.55;4.18;;;2.20;99.90;;;;;;6745302;88;20229;-77
2021/01/07 19:28:00;;;;;;;13.85;5.62;;;2.30;99.90;;;;;;6738089;88;20218;-78
2021/01/07 19:38:01;;;;;;;15.23;7.22;;;2.30;99.90;;;;;;6743703;88;20316;-78
2021/01/07 19:48:02;;;;;;;12.82;7.40;;;2.20;99.90;;;;;;6741849;88;20194;-77
2021/01/07 19:58:06;;;;;;;14.15;6.20;;;2.30;99.90;;;;;;6745577;88;21074;-77
2021/01/07 20:08:06;;;;;;;15.07;7.62;;;2.40;99.90;;;;;;6752261;88;20721;-77
2021/01/07 20:18:07;;;;;;;12.18;6.90;;;2.50;99.90;;;;;;6731048;88;20324;-77
2021/01/07 20:28:08;;;;;;;12.50;7.37;;;2.50;99.90;;;;;;6739330;88;20267;-77
2021/01/07 20:38:12;;;;;;;14.10;7.05;;;2.50;99.90;;;;;;6743114;88;20528;-77
2021/01/07 20:48:12;;;;;;;13.57;7.55;;;2.30;99.90;;;;;;6741395;88;20223;-77
2021/01/07 20:58:13;;;;;;;15.43;6.70;;;2.30;99.90;;;;;;6727476;88;20221;-78
2021/01/07 21:08:13;;;;;;;10.65;5.37;;;2.30;99.90;;;;;;6728394;88;20262;-78
2021/01/07 21:18:14;;;;;;;15.00;6.95;;;2.20;99.90;;;;;;6724254;88;20617;-76
2021/01/07 21:28:15;;;;;;;12.70;6.10;;;2.10;99.90;;;;;;6724019;88;20324;-79
2021/01/07 21:38:16;;;;;;;11.40;6.10;;;2.10;99.90;;;;;;6723822;88;20194;-76
2021/01/07 21:48:16;;;;;;;11.02;5.68;;;2.10;99.90;;;;;;6723385;88;20660;-77
2021/01/07 21:58:17;;;;;;;11.18;6.15;;;2.10;99.90;;;;;;6722797;88;20803;-76
2021/01/07 22:08:17;;;;;;;11.48;5.82;;;2.10;99.90;;;;;;6723416;88;20660;-76
2021/01/07 22:18:19;;;;;;;7.65;4.60;;;2.10;99.90;;;;;;6724795;88;20178;-75
2021/01/07 22:28:19;;;;;;;11.32;6.20;;;2.00;99.90;;;;;;6733821;88;20212;-75
2021/01/07 22:38:20;;;;;;;13.07;6.00;;;2.00;99.90;;;;;;6724494;88;20181;-76
2021/01/07 22:48:21;;;;;;;10.75;5.93;;;2.00;99.90;;;;;;6731033;88;20199;-74
2021/01/07 22:58:21;;;;;;;10.88;5.75;;;2.10;99.90;;;;;;6727009;88;20251;-76
2021/01/07 23:08:22;;;;;;;12.13;5.90;;;2.00;99.90;;;;;;6731107;88;20650;-76
2021/01/07 23:18:22;;;;;;;10.50;5.35;;;2.10;99.90;;;;;;6723045;88;20732;-78
2021/01/07 23:28:23;;;;;;;10.00;5.30;;;2.10;99.90;;;;;;6724830;88;20281;-77
2021/01/07 23:38:24;;;;;;;9.43;4.97;;;2.10;99.90;;;;;;6743213;88;20291;-77
2021/01/07 23:48:24;;;;;;;9.20;4.75;;;2.30;99.90;;;;;;6743618;88;20519;-77
2021/01/07 23:58:25;;;;;;;8.85;4.60;;;2.30;99.90;;;;;;6746324;88;20200;-77
